Michigan City, IN

3:24 PM CST on January 26, 2015 (GMT -0600)
Porter County Municipal | Change Station
CLOSE
Current Station
Airport
Location: Valparaiso,
Elevation: 768 ft
Nearby Weather Stations

Elev 768 ft 41.45 °N, 87.01 °W | Updated 28 minutes ago

Overcast
Overcast
24 °F
Feels Like 18 °F
N
5
Wind Variable Wind from South

Today
High -- | Low -- °F
--% Chance of Precip.
Yesterday
High -- | Low -- °F
Precip. -- in
7:05 AM 4:55 PM
Waxing Crescent, 47% visible
Pressure 29.94 in
Visibility 10.0 miles
Clouds Few 1800 ft
Mostly Cloudy 6000 ft
Overcast 7500 ft
Windchill 18 °F
Dew Point 17 °F
Humidity 75%
Rainfall 0.00 in
Snow Depth Not available.
UV 0 out of 12
Pollen .10 out of 12
Air Quality Not available.
Flu Activity Not available.
METAR KVPZ 262056Z AUTO 17004KT 10SM FEW018 BKN060 OVC075 M04/M08 A2990 RMK AO2 SLP139 T10441083 55005 TSNO

More Conditions Fewer Conditions

Pressure 29.94 in
Visibility 10.0 miles
Clouds Few 1800 ft
Mostly Cloudy 6000 ft
Overcast 7500 ft
Windchill 18 °F
Dew Point 17 °F
Humidity 75%
Rainfall 0.00 in
Snow Depth Not available.
UV 0 out of 12
Pollen .10 out of 12
Air Quality Not available.
Flu Activity Not available.
METAR KVPZ 262056Z AUTO 17004KT 10SM FEW018 BKN060 OVC075 M04/M08 A2990 RMK AO2 SLP139 T10441083 55005 TSNO

More Conditions Fewer Conditions

10-Day Weather Forecast

Almanac

Astronomy

Jan. 26, 2015 Rise Set
Actual Time
Civil Twilight
Nautical Twilight
Astronomical Twilight
Moon
Length of Visible Light
Length of Day
Tomorrow will be .
, % of the Moon is Illuminated

Today's Extremes

State Highs State Lows

Community

WunderPhotos

Upload Photos

1,790,364 photos uploaded!

WunderBlogs® & News

Nearby

Air Quality

  Air Quality AQ Index Pollutant
Not available.

Snow Depth

Station Depth Elevation

Earthquake Activity

City Distance Mag. Time & Date
Minimum magnitude displayed is 2.5.

Coastal Water Temperatures

Place Temperature

Nearby Weather Stations